createdAt,value
2023-01-20T00:03:53.926Z,1.60
2023-01-20T00:06:21.882Z,1.58
2023-01-20T00:08:51.577Z,1.82
2023-01-20T00:11:21.024Z,1.53
2023-01-20T00:16:57.266Z,1.87
2023-01-20T00:22:27.505Z,1.57
2023-01-20T00:24:54.934Z,1.61
2023-01-20T00:27:23.682Z,1.77
2023-01-20T00:29:52.103Z,1.74
2023-01-20T00:35:22.578Z,1.75
2023-01-20T00:37:50.055Z,1.63
2023-01-20T00:40:17.964Z,1.44
2023-01-20T00:42:46.722Z,1.49
2023-01-20T00:48:16.060Z,1.59
2023-01-20T00:50:43.644Z,1.55
2023-01-20T00:53:11.163Z,1.59
2023-01-20T00:55:38.569Z,1.75
2023-01-20T01:00:56.128Z,1.92
2023-01-20T01:03:23.746Z,1.63
2023-01-20T01:05:51.241Z,1.59
2023-01-20T01:08:18.633Z,1.79
2023-01-20T01:13:38.387Z,1.86
2023-01-20T01:19:05.598Z,1.57
2023-01-20T01:21:33.121Z,1.49
2023-01-20T01:24:00.549Z,1.20
2023-01-20T01:26:28.117Z,1.11
2023-01-20T01:31:56.899Z,0.59
2023-01-20T01:34:24.583Z,0.98
2023-01-20T01:36:52.012Z,0.83
2023-01-20T01:39:19.462Z,0.71
2023-01-20T01:44:37.329Z,0.66
2023-01-20T01:47:06.399Z,0.76
2023-01-20T01:49:34.116Z,0.69
2023-01-20T01:52:03.506Z,0.85
2023-01-20T01:57:20.198Z,1.20
2023-01-20T01:59:47.722Z,0.95
2023-01-20T02:02:17.239Z,1.12
2023-01-20T02:04:50.993Z,1.20
2023-01-20T02:10:18.126Z,1.38
2023-01-20T02:12:49.448Z,1.50
2023-01-20T02:15:17.587Z,1.54
2023-01-20T02:17:55.020Z,1.36
2023-01-20T02:23:31.461Z,1.38
2023-01-20T02:29:34.162Z,1.41
2023-01-20T02:35:12.945Z,1.12
2023-01-20T02:37:48.056Z,1.15
2023-01-20T02:40:25.263Z,1.27
2023-01-20T02:43:00.831Z,1.29
2023-01-20T02:48:29.663Z,1.31
2023-01-20T02:51:02.266Z,1.35
2023-01-20T02:53:38.285Z,1.33
2023-01-20T02:56:06.108Z,1.53
2023-01-20T03:01:43.239Z,1.22
2023-01-20T03:07:16.246Z,1.42
2023-01-20T03:09:48.019Z,1.20
2023-01-20T03:12:18.688Z,1.31
2023-01-20T03:14:46.200Z,1.20
2023-01-20T03:20:13.243Z,1.32
2023-01-20T03:22:42.071Z,1.47
2023-01-20T03:25:10.773Z,1.71
2023-01-20T03:27:38.432Z,2.00
2023-01-20T03:32:54.538Z,1.60
2023-01-20T03:35:22.106Z,1.68
2023-01-20T03:37:51.303Z,1.59
2023-01-20T03:40:19.036Z,1.35
2023-01-20T03:45:47.487Z,0.96
2023-01-20T03:51:15.077Z,1.21
2023-01-20T03:53:46.872Z,1.07
2023-01-20T03:56:18.246Z,1.11
2023-01-20T03:58:48.614Z,0.92
2023-01-20T04:04:20.393Z,0.98
2023-01-20T04:06:49.190Z,0.99
2023-01-20T04:09:21.363Z,0.95
2023-01-20T04:11:48.792Z,0.97
2023-01-20T04:17:18.535Z,0.83
2023-01-20T04:19:45.976Z,0.98
2023-01-20T04:22:16.880Z,0.98
2023-01-20T04:24:50.642Z,0.78
2023-01-20T04:30:22.192Z,1.03
2023-01-20T04:35:52.518Z,1.19
2023-01-20T04:38:20.067Z,1.25
2023-01-20T04:40:50.193Z,1.27
2023-01-20T04:43:18.524Z,1.41
2023-01-20T04:48:48.613Z,1.48
2023-01-20T04:51:16.108Z,1.33
2023-01-20T04:53:43.546Z,1.14
2023-01-20T04:56:16.274Z,1.53
2023-01-20T05:01:32.789Z,1.21
2023-01-20T05:04:00.270Z,0.93
2023-01-20T05:06:27.688Z,0.96
2023-01-20T05:08:55.117Z,1.01
2023-01-20T05:14:13.268Z,0.97
2023-01-20T05:16:40.807Z,0.85
2023-01-20T05:19:08.261Z,0.61
2023-01-20T05:21:35.689Z,0.72
2023-01-20T05:27:01.641Z,0.45
2023-01-20T05:29:30.414Z,0.46
2023-01-20T05:31:57.861Z,0.53
2023-01-20T05:34:25.440Z,0.50
2023-01-20T05:39:41.510Z,0.77
2023-01-20T05:42:08.929Z,0.57
2023-01-20T05:44:37.720Z,0.61
2023-01-20T05:47:05.317Z,0.81
2023-01-20T05:52:29.013Z,1.04
2023-01-20T05:54:56.437Z,1.00
2023-01-20T05:57:25.141Z,0.91
2023-01-20T05:59:55.519Z,1.05
2023-01-20T06:05:30.389Z,1.11
2023-01-20T06:11:00.752Z,1.21
2023-01-20T06:13:28.246Z,1.06
2023-01-20T06:18:48.476Z,1.26
2023-01-20T06:24:11.092Z,1.36
2023-01-20T06:26:38.492Z,1.19
2023-01-20T06:29:05.963Z,1.32
2023-01-20T06:31:33.437Z,1.23
2023-01-20T06:36:50.954Z,1.15
2023-01-20T06:39:18.375Z,1.32
2023-01-20T06:41:46.310Z,1.39
2023-01-20T06:44:13.873Z,1.25
2023-01-20T06:49:29.978Z,1.27
2023-01-20T06:51:58.729Z,1.13
2023-01-20T06:54:27.056Z,1.24
2023-01-20T06:56:54.508Z,1.41
2023-01-20T07:02:10.944Z,1.28
2023-01-20T07:04:38.493Z,1.59
2023-01-20T07:07:07.259Z,1.65
2023-01-20T07:09:34.682Z,1.35
2023-01-20T07:14:55.151Z,1.64
2023-01-20T07:20:21.550Z,1.63
2023-01-20T07:22:50.486Z,1.78
2023-01-20T07:25:17.911Z,1.64
2023-01-20T07:27:45.345Z,1.66
2023-01-20T07:33:05.442Z,1.82
2023-01-20T07:35:32.985Z,1.80
2023-01-20T07:38:01.771Z,1.71
2023-01-20T07:40:29.167Z,1.87
2023-01-20T07:45:45.622Z,1.52
2023-01-20T07:48:13.043Z,1.27
2023-01-20T07:50:40.469Z,1.22
2023-01-20T07:53:09.255Z,1.58
2023-01-20T07:58:39.665Z,1.84
2023-01-20T08:01:08.914Z,1.62
2023-01-20T08:03:36.474Z,1.64
2023-01-20T08:06:04.454Z,1.45
2023-01-20T08:11:35.889Z,1.97
2023-01-20T08:14:03.339Z,1.76
2023-01-20T08:16:30.784Z,1.75
2023-01-20T08:18:58.502Z,1.43
2023-01-20T08:24:28.573Z,1.79
2023-01-20T08:26:57.356Z,1.76
2023-01-20T08:29:24.818Z,1.71
2023-01-20T08:31:52.361Z,2.07
2023-01-20T08:37:17.618Z,1.97
2023-01-20T08:39:45.032Z,1.97
2023-01-20T08:42:13.844Z,2.14
2023-01-20T08:44:41.321Z,2.09
2023-01-20T08:50:00.122Z,1.92
2023-01-20T08:55:27.538Z,2.33
2023-01-20T08:57:56.320Z,2.45
2023-01-20T09:00:24.514Z,2.48
2023-01-20T09:02:52.033Z,2.26
2023-01-20T09:08:19.701Z,2.40
2023-01-20T09:10:47.562Z,2.57
2023-01-20T09:13:16.335Z,2.51
2023-01-20T09:15:43.827Z,2.59
2023-01-20T09:21:13.587Z,2.45
2023-01-20T09:23:42.679Z,3.06
2023-01-20T09:26:10.603Z,3.23
2023-01-20T09:28:39.327Z,2.76
2023-01-20T09:34:09.575Z,3.17
2023-01-20T09:36:37.021Z,3.26
2023-01-20T09:39:22.314Z,3.26
2023-01-20T09:42:08.027Z,3.51
2023-01-20T09:44:45.817Z,3.54
2023-01-20T09:47:28.596Z,3.46
2023-01-20T09:53:06.487Z,3.34
2023-01-20T09:55:41.138Z,2.74
2023-01-20T09:58:14.971Z,2.60
2023-01-20T10:00:47.809Z,2.92
2023-01-20T10:06:02.897Z,2.99
2023-01-20T10:11:32.204Z,3.33
2023-01-20T10:14:05.251Z,3.55
2023-01-20T10:16:38.842Z,3.77
2023-01-20T10:19:11.328Z,3.64
2023-01-20T10:24:44.978Z,3.88
2023-01-20T10:27:12.463Z,3.93
2023-01-20T10:29:42.327Z,4.20
2023-01-20T10:32:17.065Z,4.40
2023-01-20T10:37:44.109Z,4.59
2023-01-20T10:43:14.295Z,4.67
2023-01-20T10:45:53.440Z,4.85
2023-01-20T10:48:30.300Z,5.01
2023-01-20T10:50:59.911Z,5.10
2023-01-20T10:56:34.587Z,5.39
2023-01-20T10:59:05.180Z,5.26
2023-01-20T11:01:32.708Z,5.38
2023-01-20T11:04:01.484Z,5.29
2023-01-20T11:09:32.626Z,5.50
2023-01-20T11:15:18.855Z,5.17
2023-01-20T11:17:47.449Z,5.00
2023-01-20T11:20:21.200Z,5.15
2023-01-20T11:22:50.181Z,4.91
2023-01-20T11:28:18.680Z,4.46
2023-01-20T11:30:51.978Z,4.37
2023-01-20T11:33:22.078Z,4.64
2023-01-20T11:36:01.592Z,4.38
2023-01-20T11:41:06.387Z,5.30
2023-01-20T11:46:37.198Z,5.44
2023-01-20T11:49:15.751Z,5.72
2023-01-20T11:51:51.464Z,6.20
2023-01-20T11:54:21.109Z,5.59
2023-01-20T11:59:49.465Z,5.30
2023-01-20T12:02:24.430Z,5.71
2023-01-20T12:05:04.250Z,5.80
2023-01-20T12:07:36.262Z,5.42
2023-01-20T12:12:50.765Z,5.31
2023-01-20T12:18:20.105Z,5.44
2023-01-20T12:20:55.700Z,5.50
2023-01-20T12:23:35.284Z,4.78
2023-01-20T12:26:04.491Z,4.93
2023-01-20T12:31:23.794Z,4.56
2023-01-20T12:33:52.664Z,4.67
2023-01-20T12:36:35.960Z,4.50
2023-01-20T12:39:21.573Z,4.88
2023-01-20T12:44:33.223Z,5.08
2023-01-20T12:50:19.663Z,4.30
2023-01-20T12:52:55.845Z,3.71
2023-01-20T12:55:31.944Z,4.18
2023-01-20T12:58:04.933Z,4.21
2023-01-20T13:03:53.773Z,4.11
2023-01-20T13:09:42.000Z,3.70
2023-01-20T13:15:23.236Z,3.74
2023-01-20T13:18:08.485Z,3.94
2023-01-20T13:20:40.471Z,3.82
2023-01-20T13:23:10.776Z,4.04
2023-01-20T13:28:56.600Z,3.73
2023-01-20T13:34:36.533Z,4.08
2023-01-20T13:37:24.719Z,4.07
2023-01-20T13:39:54.266Z,4.02
2023-01-20T13:42:29.955Z,3.94
2023-01-20T13:47:53.380Z,4.21
2023-01-20T13:53:29.247Z,4.22
2023-01-20T13:56:25.554Z,4.45
2023-01-20T13:58:53.230Z,4.49
2023-01-20T14:01:20.704Z,4.44
2023-01-20T14:06:45.994Z,4.22
2023-01-20T14:09:20.198Z,3.87
2023-01-20T14:11:50.419Z,4.20
2023-01-20T14:14:20.261Z,4.15
2023-01-20T14:17:08.251Z,4.30
2023-01-20T14:19:36.185Z,4.26
2023-01-20T14:25:03.456Z,4.01
2023-01-20T14:27:33.495Z,4.08
2023-01-20T14:30:16.067Z,4.09
2023-01-20T14:32:43.779Z,4.26
2023-01-20T14:38:19.004Z,4.10
2023-01-20T14:40:49.949Z,4.03
2023-01-20T14:43:19.417Z,4.00
2023-01-20T14:45:49.411Z,4.00
2023-01-20T14:51:15.422Z,4.01
2023-01-20T14:56:48.498Z,4.05
2023-01-20T14:59:19.824Z,4.18
2023-01-20T15:01:52.279Z,4.17
2023-01-20T15:04:19.936Z,4.05
2023-01-20T15:09:36.886Z,3.66
2023-01-20T15:12:42.451Z,3.64
2023-01-20T15:15:28.685Z,3.60
2023-01-20T15:18:16.758Z,3.48
2023-01-20T15:20:46.421Z,3.74
2023-01-20T15:23:22.871Z,3.89
2023-01-20T15:28:49.920Z,3.25
2023-01-20T15:31:18.104Z,3.37
2023-01-20T15:33:45.700Z,3.33
2023-01-20T15:36:21.710Z,2.81
2023-01-20T15:41:57.478Z,2.13
2023-01-20T15:47:30.836Z,1.94
2023-01-20T15:49:58.396Z,1.68
2023-01-20T15:52:25.930Z,1.57
2023-01-20T15:54:53.348Z,1.65
2023-01-20T16:00:18.578Z,1.64
2023-01-20T16:02:46.260Z,1.43
2023-01-20T16:05:17.189Z,1.21
2023-01-20T16:07:46.890Z,1.02
2023-01-20T16:13:16.890Z,0.97
2023-01-20T16:15:45.640Z,1.02
2023-01-20T16:18:15.301Z,1.08
2023-01-20T16:20:43.877Z,1.27
2023-01-20T16:26:20.003Z,1.24
2023-01-20T16:28:47.465Z,1.33
2023-01-20T16:31:16.318Z,1.58
2023-01-20T16:33:44.234Z,1.74
2023-01-20T16:39:01.595Z,1.83
2023-01-20T16:44:29.580Z,1.84
2023-01-20T16:47:00.054Z,1.52
2023-01-20T16:49:27.481Z,1.28
2023-01-20T16:51:54.899Z,1.54
2023-01-20T16:57:11.334Z,0.89
2023-01-20T16:59:38.773Z,1.00
2023-01-20T17:02:07.565Z,1.14
2023-01-20T17:04:35.385Z,1.33
2023-01-20T17:10:06.186Z,1.07
2023-01-20T17:12:33.583Z,0.98
2023-01-20T17:15:01.046Z,0.64
2023-01-20T17:17:29.829Z,0.44
2023-01-20T17:22:59.570Z,0.37
2023-01-20T17:25:26.995Z,0.36
2023-01-20T17:27:54.453Z,0.25
2023-01-20T17:30:24.527Z,0.24
2023-01-20T17:35:57.405Z,0.44
2023-01-20T17:38:24.931Z,0.48
2023-01-20T17:40:52.447Z,0.46
2023-01-20T17:43:20.009Z,-0.13
2023-01-20T17:48:45.418Z,0.11
2023-01-20T17:54:12.548Z,0.24
2023-01-20T17:56:40.004Z,-0.05
2023-01-20T17:59:07.429Z,-0.26
2023-01-20T18:01:34.949Z,-0.18
2023-01-20T18:06:54.919Z,-0.45
2023-01-20T18:09:22.373Z,-0.33
2023-01-20T18:11:49.800Z,-0.31
2023-01-20T18:14:17.313Z,-0.26
2023-01-20T18:19:35.494Z,-0.26
2023-01-20T18:22:06.864Z,-0.35
2023-01-20T18:24:34.362Z,-0.44
2023-01-20T18:27:01.840Z,-0.71
2023-01-20T18:32:31.605Z,-0.68
2023-01-20T18:34:59.006Z,-0.73
2023-01-20T18:39:56.672Z,-0.87
2023-01-20T18:45:12.568Z,-0.80
2023-01-20T18:47:39.969Z,-0.78
2023-01-20T18:50:08.009Z,-0.78
2023-01-20T18:52:36.779Z,-0.78
2023-01-20T18:58:08.432Z,-0.63
2023-01-20T19:00:36.094Z,-0.71
2023-01-20T19:03:03.735Z,-0.64
2023-01-20T19:05:32.396Z,-0.64
2023-01-20T19:11:05.526Z,-0.76
2023-01-20T19:13:33.481Z,-0.88
2023-01-20T19:16:01.028Z,-1.02
2023-01-20T19:18:28.748Z,-1.31
2023-01-20T19:23:49.481Z,-1.37
2023-01-20T19:29:19.032Z,-1.67
2023-01-20T19:31:46.576Z,-1.66
2023-01-20T19:34:14.093Z,-1.67
2023-01-20T19:36:42.797Z,-1.86
2023-01-20T19:42:10.826Z,-2.11
2023-01-20T19:44:38.250Z,-2.44
2023-01-20T19:47:05.771Z,-2.29
2023-01-20T19:49:33.287Z,-2.41
2023-01-20T19:55:03.523Z,-2.13
2023-01-20T19:57:32.285Z,-2.02
2023-01-20T19:59:59.698Z,-2.03
2023-01-20T20:02:28.097Z,-2.09
2023-01-20T20:07:44.521Z,-2.25
2023-01-20T20:10:12.059Z,-2.36
2023-01-20T20:12:41.261Z,-2.16
2023-01-20T20:15:10.798Z,-2.01
2023-01-20T20:20:36.738Z,-1.95
2023-01-20T20:23:04.148Z,-2.01
2023-01-20T20:25:31.690Z,-2.11
2023-01-20T20:27:59.152Z,-2.29
2023-01-20T20:33:17.566Z,-2.72
2023-01-20T20:35:45.082Z,-2.58
2023-01-20T20:38:12.541Z,-2.47
2023-01-20T20:40:39.980Z,-2.41
2023-01-20T20:46:07.389Z,-2.68
2023-01-20T20:48:37.379Z,-2.58
2023-01-20T20:51:08.974Z,-2.97
2023-01-20T20:53:36.588Z,-2.91
2023-01-20T20:59:01.835Z,-2.69
2023-01-20T21:04:43.922Z,-2.96
2023-01-20T21:07:11.886Z,-2.84
2023-01-20T21:09:40.518Z,-2.83
2023-01-20T21:12:08.481Z,-2.80
2023-01-20T21:17:34.524Z,-2.67
2023-01-20T21:20:03.760Z,-2.72
2023-01-20T21:22:31.256Z,-2.80
2023-01-20T21:24:58.702Z,-2.83
2023-01-20T21:30:28.528Z,-3.02
2023-01-20T21:32:56.019Z,-2.80
2023-01-20T21:35:24.874Z,-2.63
2023-01-20T21:37:52.262Z,-2.68
2023-01-20T21:43:32.399Z,-2.65
2023-01-20T21:49:16.136Z,-2.76
2023-01-20T21:52:02.683Z,-3.10
2023-01-20T21:54:31.853Z,-3.50
2023-01-20T21:56:59.826Z,-3.50
2023-01-20T22:02:18.072Z,-3.16
2023-01-20T22:07:48.256Z,-3.24
2023-01-20T22:10:16.082Z,-3.54
2023-01-20T22:12:43.624Z,-3.56
2023-01-20T22:15:11.825Z,-3.89
2023-01-20T22:20:29.295Z,-3.49
2023-01-20T22:22:58.027Z,-3.33
2023-01-20T22:25:25.421Z,-3.36
2023-01-20T22:27:52.810Z,-3.42
2023-01-20T22:33:08.576Z,-4.06
2023-01-20T22:35:36.007Z,-3.95
2023-01-20T22:38:04.873Z,-3.61
2023-01-20T22:40:34.184Z,-3.45
2023-01-20T22:46:04.982Z,-4.44
2023-01-20T22:48:33.353Z,-4.37
2023-01-20T22:51:03.298Z,-4.06
2023-01-20T22:53:32.407Z,-3.73
2023-01-20T22:58:59.331Z,-3.95
2023-01-20T23:01:28.696Z,-4.01
2023-01-20T23:03:57.211Z,-4.24
2023-01-20T23:06:25.499Z,-4.07
2023-01-20T23:11:52.895Z,-4.57
2023-01-20T23:17:30.083Z,-3.74
2023-01-20T23:19:58.364Z,-3.64
2023-01-20T23:22:25.827Z,-3.63
2023-01-20T23:24:53.261Z,-3.68
2023-01-20T23:30:12.073Z,-3.74
2023-01-20T23:32:39.598Z,-3.66
2023-01-20T23:35:07.535Z,-3.67
2023-01-20T23:37:34.969Z,-3.53
2023-01-20T23:43:00.523Z,-3.57
2023-01-20T23:45:29.406Z,-4.02
2023-01-20T23:47:57.029Z,-4.09
2023-01-20T23:50:24.461Z,-3.86
2023-01-20T23:55:50.490Z,-3.99
2023-01-20T23:58:17.970Z,-3.91
